Time;durP1;ratioP1;P1;durP2;ratioP2;P2;SDS_P1;SDS_P2;PMS_P1;PMS_P2;Temp;Humidity;BMP_temperature;BMP_pressure;BME280_temperature;BME280_humidity;BME280_pressure;Samples;Min_cycle;Max_cycle;Signal;HPM_P1;HPM_P2
2022/12/23 00:01:05;;;;;;;6.10;2.95;;;10.40;87.30;;;;;;5091924;28;20012;-80
2022/12/23 00:03:31;;;;;;;6.15;3.20;;;10.40;87.40;;;;;;5084521;28;20028;-79
2022/12/23 00:05:56;;;;;;;5.78;2.97;;;10.40;87.30;;;;;;5072984;28;20017;-79
2022/12/23 00:08:23;;;;;;;5.97;3.20;;;10.40;87.40;;;;;;5092833;28;20454;-79
2022/12/23 00:10:50;;;;;;;5.57;3.22;;;10.40;87.30;;;;;;5098268;28;20070;-79
2022/12/23 00:16:11;;;;;;;5.28;3.13;;;10.40;87.40;;;;;;5075118;28;20031;-78
2022/12/23 00:18:38;;;;;;;5.78;3.47;;;10.40;87.30;;;;;;5074641;28;20044;-79
2022/12/23 00:21:09;;;;;;;4.70;2.75;;;10.40;87.40;;;;;;5090279;28;20446;-80
2022/12/23 00:23:39;;;;;;;5.18;2.90;;;10.40;87.40;;;;;;5089151;28;20035;-79
2022/12/23 00:26:05;;;;;;;5.57;3.03;;;10.40;87.40;;;;;;5093722;28;20046;-79
2022/12/23 00:28:31;;;;;;;5.85;3.10;;;10.30;87.30;;;;;;5096394;28;20044;-78
2022/12/23 00:31:02;;;;;;;6.00;3.08;;;10.40;87.40;;;;;;5093770;28;20024;-79
2022/12/23 00:33:31;;;;;;;5.57;3.00;;;10.40;87.40;;;;;;5087643;28;20040;-79
2022/12/23 00:35:57;;;;;;;5.45;3.00;;;10.40;87.40;;;;;;5093528;28;20024;-79
2022/12/23 00:43:59;;;;;;;5.72;3.28;;;10.40;87.40;;;;;;5089599;28;20105;-79
2022/12/23 00:46:24;;;;;;;5.25;3.00;;;10.50;87.50;;;;;;5093180;28;20024;-78
2022/12/23 00:51:34;;;;;;;5.10;2.85;;;10.40;87.40;;;;;;5091400;28;20085;-80
2022/12/23 00:54:00;;;;;;;4.95;2.80;;;10.40;87.40;;;;;;5071942;28;20020;-78
2022/12/23 00:56:26;;;;;;;5.15;2.67;;;10.40;87.30;;;;;;5073052;28;20031;-79
2022/12/23 00:58:51;;;;;;;5.53;3.22;;;10.40;87.30;;;;;;5074217;28;20091;-79
2022/12/23 01:06:46;;;;;;;5.15;2.75;;;10.40;87.30;;;;;;5082915;28;20019;-80
2022/12/23 01:09:11;;;;;;;5.10;2.92;;;10.40;87.30;;;;;;5097875;28;20016;-80
2022/12/23 01:11:37;;;;;;;4.82;2.85;;;10.40;87.30;;;;;;5097502;28;20018;-80
2022/12/23 01:14:02;;;;;;;5.82;3.20;;;10.40;87.30;;;;;;5096980;28;20012;-80
2022/12/23 01:16:28;;;;;;;4.47;2.70;;;10.40;87.30;;;;;;5097033;28;20016;-81
2022/12/23 01:18:53;;;;;;;5.55;3.08;;;10.40;87.30;;;;;;5098019;28;20012;-79
2022/12/23 01:21:19;;;;;;;6.10;2.90;;;10.40;87.20;;;;;;5095800;28;20016;-80
2022/12/23 01:23:44;;;;;;;4.75;2.70;;;10.40;87.30;;;;;;5076746;28;20024;-80
2022/12/23 01:26:10;;;;;;;5.65;3.17;;;10.40;87.30;;;;;;5093456;28;20024;-79
2022/12/23 01:28:36;;;;;;;5.20;2.80;;;10.40;87.20;;;;;;5099875;28;20101;-80
2022/12/23 01:31:04;;;;;;;4.90;2.88;;;10.40;87.20;;;;;;5098779;28;20059;-78
2022/12/23 01:33:31;;;;;;;5.50;2.90;;;10.40;87.20;;;;;;5081675;28;20066;-80
2022/12/23 01:36:05;;;;;;;4.63;2.70;;;10.50;87.30;;;;;;5077112;28;20077;-78
2022/12/23 01:38:31;;;;;;;5.60;2.90;;;10.40;87.20;;;;;;5076870;28;20017;-79
2022/12/23 01:40:57;;;;;;;5.05;2.80;;;10.50;87.20;;;;;;5078535;28;20020;-80
2022/12/23 01:43:23;;;;;;;4.82;2.70;;;10.40;87.20;;;;;;5077886;28;20123;-79
2022/12/23 01:45:48;;;;;;;5.50;3.05;;;10.40;87.20;;;;;;5078088;28;20025;-80
2022/12/23 01:48:42;;;;;;;5.07;3.03;;;10.50;87.20;;;;;;5076286;28;20043;-79
2022/12/23 01:51:11;;;;;;;4.32;2.67;;;10.40;87.10;;;;;;5074549;28;20431;-80
2022/12/23 01:53:42;;;;;;;5.60;2.90;;;10.50;87.20;;;;;;5085746;28;20032;-81
2022/12/23 01:56:23;;;;;;;3.95;2.38;;;10.50;87.00;;;;;;5097946;28;20031;-80
2022/12/23 01:58:54;;;;;;;5.50;2.70;;;10.50;87.00;;;;;;5097920;28;20062;-79
2022/12/23 02:04:08;;;;;;;4.47;2.58;;;10.60;86.70;;;;;;5099598;28;20047;-80
2022/12/23 02:09:33;;;;;;;4.97;2.72;;;10.60;86.40;;;;;;5098771;28;20103;-79
2022/12/23 02:12:33;;;;;;;4.30;2.45;;;10.60;86.30;;;;;;5096640;28;20024;-79
2022/12/23 02:18:09;;;;;;;4.78;2.63;;;10.60;86.20;;;;;;5102263;28;20071;-79
2022/12/23 02:20:57;;;;;;;4.47;2.65;;;10.60;86.30;;;;;;5096431;28;20016;-77
2022/12/23 02:23:31;;;;;;;4.30;2.50;;;10.60;86.40;;;;;;5097081;28;20024;-79
2022/12/23 02:26:06;;;;;;;4.97;2.67;;;10.60;86.60;;;;;;5096013;28;20432;-79
2022/12/23 02:28:46;;;;;;;5.35;2.72;;;10.50;86.70;;;;;;5095531;28;20020;-79
2022/12/23 02:31:30;;;;;;;5.22;2.60;;;10.50;86.80;;;;;;5094705;28;20027;-80
2022/12/23 02:34:15;;;;;;;5.07;2.85;;;10.50;87.00;;;;;;5095049;28;20131;-80
2022/12/23 02:36:50;;;;;;;4.90;2.80;;;10.50;87.00;;;;;;5096470;28;20035;-80
2022/12/23 02:39:34;;;;;;;5.38;2.80;;;10.50;87.10;;;;;;5095456;28;20022;-80
2022/12/23 02:42:14;;;;;;;4.65;2.30;;;10.50;87.20;;;;;;5095513;28;20028;-78
2022/12/23 02:44:57;;;;;;;5.05;2.70;;;10.50;87.30;;;;;;5098678;28;20016;-81
2022/12/23 02:47:32;;;;;;;4.55;2.60;;;10.50;87.30;;;;;;5097334;28;20036;-79
2022/12/23 02:50:05;;;;;;;4.75;2.58;;;10.40;87.30;;;;;;5094467;28;20039;-77
2022/12/23 02:52:32;;;;;;;5.10;2.80;;;10.50;87.30;;;;;;5094627;28;20016;-79
2022/12/23 02:55:03;;;;;;;4.55;2.55;;;10.40;87.30;;;;;;5082319;28;20042;-79
2022/12/23 02:57:33;;;;;;;4.25;2.60;;;10.50;87.40;;;;;;5073944;28;20028;-78
2022/12/23 03:00:00;;;;;;;4.13;2.28;;;10.40;87.40;;;;;;5073936;28;20021;-78
2022/12/23 03:02:25;;;;;;;5.13;2.75;;;10.50;87.40;;;;;;5082861;28;20023;-79
2022/12/23 03:04:51;;;;;;;4.40;2.63;;;10.50;87.40;;;;;;5094413;28;20016;-79
2022/12/23 03:07:29;;;;;;;4.35;2.40;;;10.40;87.40;;;;;;5094342;28;20115;-79
2022/12/23 03:10:19;;;;;;;4.28;2.50;;;10.40;87.40;;;;;;5094145;28;20027;-77
2022/12/23 03:12:48;;;;;;;;;;;10.40;87.40;;;;;;5090161;28;20012;-79
2022/12/23 03:15:42;;;;;;;4.60;2.50;;;10.40;87.40;;;;;;5095683;28;20282;-78
2022/12/23 03:18:44;;;;;;;4.78;2.38;;;10.40;87.50;;;;;;5094300;28;20034;-78
2022/12/23 03:21:42;;;;;;;4.40;2.55;;;10.40;87.40;;;;;;5095408;28;20397;-78
2022/12/23 03:24:41;;;;;;;4.20;2.45;;;10.40;87.40;;;;;;5075028;28;20025;-78
2022/12/23 03:27:14;;;;;;;5.15;2.60;;;10.40;87.50;;;;;;5082956;28;20020;-79
2022/12/23 03:29:54;;;;;;;5.05;2.70;;;10.40;87.50;;;;;;5095180;28;20016;-79
2022/12/23 03:32:21;;;;;;;5.97;2.45;;;10.40;87.50;;;;;;5091810;28;20017;-80
2022/12/23 03:34:51;;;;;;;4.22;2.33;;;10.40;87.50;;;;;;5100149;28;20030;-79
2022/12/23 03:37:19;;;;;;;4.53;2.38;;;10.40;87.50;;;;;;5100639;28;20025;-80
2022/12/23 03:40:00;;;;;;;4.38;2.33;;;10.40;87.50;;;;;;5096474;28;20020;-78
2022/12/23 03:42:29;;;;;;;4.72;2.33;;;10.40;87.50;;;;;;5093281;28;20023;-81
2022/12/23 03:44:58;;;;;;;4.55;2.50;;;10.50;87.50;;;;;;5093263;28;20535;-79
2022/12/23 03:47:28;;;;;;;4.50;2.40;;;10.40;87.50;;;;;;5098251;28;20024;-80
2022/12/23 03:50:02;;;;;;;4.30;2.37;;;10.50;87.60;;;;;;5097242;28;20417;-79
2022/12/23 03:52:34;;;;;;;3.47;2.17;;;10.40;87.50;;;;;;5085718;28;20029;-78
2022/12/23 03:55:04;;;;;;;4.43;2.50;;;10.40;87.50;;;;;;5074655;28;20025;-78
2022/12/23 03:57:53;;;;;;;4.55;2.40;;;10.40;87.40;;;;;;5074609;28;20017;-78
2022/12/23 04:00:19;;;;;;;4.50;2.33;;;10.40;87.40;;;;;;5066864;28;20048;-79
2022/12/23 04:03:05;;;;;;;4.05;2.33;;;10.40;87.50;;;;;;5085987;28;20020;-81
2022/12/23 04:05:35;;;;;;;4.57;2.47;;;10.40;87.50;;;;;;5092773;28;20024;-79
2022/12/23 04:08:10;;;;;;;3.95;2.53;;;10.50;87.50;;;;;;5096848;28;20046;-80
2022/12/23 04:10:35;;;;;;;3.97;2.30;;;10.40;87.40;;;;;;5097014;28;20016;-79
2022/12/23 04:13:01;;;;;;;4.63;2.47;;;10.50;87.50;;;;;;5095106;28;20391;-79
2022/12/23 04:15:27;;;;;;;4.60;2.78;;;10.50;87.50;;;;;;5075401;28;20023;-80
2022/12/23 04:17:54;;;;;;;4.15;2.33;;;10.50;87.50;;;;;;5072095;28;20027;-78
2022/12/23 04:20:20;;;;;;;5.25;2.55;;;10.40;87.40;;;;;;5075723;28;20048;-80
2022/12/23 04:22:45;;;;;;;4.55;2.47;;;10.40;87.40;;;;;;5080642;28;20020;-80
2022/12/23 04:25:12;;;;;;;4.50;2.47;;;10.50;87.50;;;;;;5095675;28;20085;-80
2022/12/23 04:27:38;;;;;;;4.43;2.45;;;10.50;87.50;;;;;;5096467;28;20036;-79
2022/12/23 04:30:06;;;;;;;4.20;2.35;;;10.50;87.50;;;;;;5095887;28;20086;-80
2022/12/23 04:32:32;;;;;;;4.50;2.38;;;10.50;87.50;;;;;;5087177;28;20115;-79
2022/12/23 04:34:57;;;;;;;4.50;2.47;;;10.40;87.40;;;;;;5096503;28;20059;-78
2022/12/23 04:37:23;;;;;;;4.68;2.30;;;10.50;87.50;;;;;;5095840;28;20024;-79
2022/12/23 04:39:48;;;;;;;4.32;2.30;;;10.50;87.50;;;;;;5099374;28;20020;-80
2022/12/23 04:42:14;;;;;;;4.28;2.38;;;10.40;87.40;;;;;;5098911;28;20399;-79
2022/12/23 04:44:39;;;;;;;4.28;2.20;;;10.50;87.50;;;;;;5099658;28;20012;-79
2022/12/23 04:47:04;;;;;;;3.72;2.20;;;10.50;87.40;;;;;;5097999;28;20028;-79
2022/12/23 04:49:30;;;;;;;4.40;2.22;;;10.50;87.40;;;;;;5097021;28;20030;-79
2022/12/23 04:51:56;;;;;;;3.83;2.50;;;10.50;87.50;;;;;;5097489;28;20020;-79
2022/12/23 04:54:22;;;;;;;4.22;2.65;;;10.50;87.40;;;;;;5097829;28;20078;-77
2022/12/23 04:56:47;;;;;;;4.43;2.40;;;10.50;87.40;;;;;;5098712;28;20549;-80
2022/12/23 04:59:13;;;;;;;3.83;2.28;;;10.50;87.40;;;;;;5099802;28;20016;-80
2022/12/23 05:01:38;;;;;;;3.78;2.10;;;10.50;87.40;;;;;;5098742;28;20016;-79
2022/12/23 05:04:04;;;;;;;4.40;2.40;;;10.50;87.50;;;;;;5097599;28;20042;-78
2022/12/23 05:06:29;;;;;;;3.47;2.10;;;10.50;87.50;;;;;;5099255;28;20016;-80
2022/12/23 05:08:55;;;;;;;4.32;2.20;;;10.50;87.50;;;;;;5098532;28;20625;-80
2022/12/23 05:11:20;;;;;;;4.25;2.25;;;10.50;87.50;;;;;;5097426;28;20016;-80
2022/12/23 05:13:46;;;;;;;3.80;2.20;;;10.50;87.40;;;;;;5099048;28;20027;-80
2022/12/23 05:16:11;;;;;;;3.40;2.03;;;10.50;87.30;;;;;;5098387;28;20012;-81
2022/12/23 05:18:37;;;;;;;4.18;2.40;;;10.60;87.10;;;;;;5099987;28;20046;-79
2022/12/23 05:21:03;;;;;;;3.90;2.40;;;10.50;86.90;;;;;;5098144;28;20389;-79
2022/12/23 05:23:28;;;;;;;4.53;2.20;;;10.60;86.90;;;;;;5097814;28;20497;-77
2022/12/23 05:25:53;;;;;;;4.78;2.30;;;10.60;86.70;;;;;;5092482;28;20027;-79
2022/12/23 05:28:21;;;;;;;3.90;2.17;;;10.60;86.60;;;;;;5102671;28;20050;-81
2022/12/23 05:30:47;;;;;;;3.95;2.20;;;10.60;86.50;;;;;;5097496;28;20058;-79
2022/12/23 05:33:13;;;;;;;4.07;2.25;;;10.70;86.50;;;;;;5097281;28;20474;-79
2022/12/23 05:35:38;;;;;;;3.78;2.00;;;10.70;86.40;;;;;;5099164;28;20073;-79
2022/12/23 05:38:05;;;;;;;4.13;2.28;;;10.70;86.40;;;;;;5097494;28;20024;-79
2022/12/23 05:40:31;;;;;;;5.93;2.30;;;10.70;86.50;;;;;;5098125;28;20054;-78
2022/12/23 05:42:56;;;;;;;3.47;2.08;;;10.60;86.60;;;;;;5094285;28;20017;-77
2022/12/23 05:45:22;;;;;;;3.38;2.10;;;10.60;86.80;;;;;;5092204;28;20398;-78
2022/12/23 05:47:47;;;;;;;3.78;2.17;;;10.60;87.00;;;;;;5098395;28;20034;-79
2022/12/23 05:50:13;;;;;;;4.25;2.35;;;10.60;87.10;;;;;;5096613;28;20426;-79
2022/12/23 05:52:39;;;;;;;3.55;2.10;;;10.60;87.30;;;;;;5097308;28;20031;-79
2022/12/23 05:55:05;;;;;;;3.95;2.15;;;10.50;87.30;;;;;;5099792;28;20111;-82
2022/12/23 05:57:31;;;;;;;4.25;2.33;;;10.50;87.50;;;;;;5100828;28;20048;-79
2022/12/23 05:59:57;;;;;;;3.88;2.17;;;10.50;87.50;;;;;;5096359;28;20016;-81
2022/12/23 06:02:22;;;;;;;4.03;2.20;;;10.50;87.50;;;;;;5089534;28;20028;-79
2022/12/23 06:04:48;;;;;;;4.00;2.20;;;10.50;87.60;;;;;;5097809;28;20099;-80
2022/12/23 06:07:15;;;;;;;4.68;2.25;;;10.50;87.60;;;;;;5097876;28;20116;-79
2022/12/23 06:09:40;;;;;;;3.92;2.33;;;10.50;87.70;;;;;;5096469;28;20474;-79
2022/12/23 06:12:06;;;;;;;4.03;2.35;;;10.50;87.70;;;;;;5090143;28;20040;-79
2022/12/23 06:14:31;;;;;;;4.45;2.17;;;10.50;87.70;;;;;;5075745;28;20051;-79
2022/12/23 06:16:57;;;;;;;4.13;1.92;;;10.50;87.70;;;;;;5076560;28;20521;-78
2022/12/23 06:19:22;;;;;;;4.32;2.47;;;10.50;87.80;;;;;;5077594;28;20095;-81
2022/12/23 06:21:48;;;;;;;4.18;2.25;;;10.50;87.80;;;;;;5077200;28;20104;-78
2022/12/23 06:24:13;;;;;;;3.42;2.00;;;10.50;87.80;;;;;;5094810;28;20031;-75
2022/12/23 06:26:39;;;;;;;3.40;2.20;;;10.50;87.80;;;;;;5094523;28;20081;-78
2022/12/23 06:29:04;;;;;;;4.63;2.30;;;10.50;87.80;;;;;;5099807;28;20030;-79
2022/12/23 06:31:30;;;;;;;3.78;2.13;;;10.50;87.80;;;;;;5099965;28;20461;-77
2022/12/23 06:33:55;;;;;;;4.15;2.30;;;10.50;87.80;;;;;;5096127;28;20075;-76
2022/12/23 06:36:21;;;;;;;4.22;2.40;;;10.50;87.80;;;;;;5093747;28;20055;-77
2022/12/23 06:38:46;;;;;;;3.90;2.20;;;10.50;87.80;;;;;;5091073;28;20048;-76
2022/12/23 06:41:11;;;;;;;4.78;2.53;;;10.50;87.80;;;;;;5093276;28;20020;-77
2022/12/23 06:43:37;;;;;;;4.03;2.15;;;10.50;87.80;;;;;;5093252;28;20035;-76
2022/12/23 06:46:03;;;;;;;4.15;2.28;;;10.50;87.80;;;;;;5092311;28;20016;-77
2022/12/23 06:48:28;;;;;;;3.22;1.98;;;10.50;87.80;;;;;;5092173;28;20111;-78
2022/12/23 06:50:54;;;;;;;3.53;2.10;;;10.50;88.30;;;;;;5094170;28;20381;-77
2022/12/23 06:53:19;;;;;;;4.20;2.30;;;10.50;87.80;;;;;;5084959;28;20036;-78
2022/12/23 06:55:44;;;;;;;4.28;2.50;;;10.50;87.80;;;;;;5072976;28;20036;-77
2022/12/23 06:58:10;;;;;;;3.25;2.10;;;10.50;87.80;;;;;;5072387;28;20036;-78
2022/12/23 07:00:36;;;;;;;4.25;2.20;;;10.50;87.90;;;;;;5072751;28;20031;-78
2022/12/23 07:03:01;;;;;;;4.50;2.28;;;10.50;87.80;;;;;;5071328;28;20397;-77
2022/12/23 07:05:27;;;;;;;4.10;2.35;;;10.50;87.80;;;;;;5072336;28;20100;-78
2022/12/23 07:07:52;;;;;;;3.85;2.15;;;10.50;87.80;;;;;;5072801;28;20031;-78
2022/12/23 07:10:18;;;;;;;4.38;2.60;;;10.50;87.80;;;;;;5072702;28;20024;-77
2022/12/23 07:12:43;;;;;;;4.68;2.28;;;10.50;87.90;;;;;;5072915;28;20053;-77
2022/12/23 07:15:09;;;;;;;4.30;2.28;;;10.50;87.90;;;;;;5073310;28;20020;-77
2022/12/23 07:17:35;;;;;;;4.65;2.38;;;10.50;87.80;;;;;;5083903;28;20024;-76
2022/12/23 07:20:00;;;;;;;4.43;2.42;;;10.50;87.80;;;;;;5092119;28;20022;-77
2022/12/23 07:22:26;;;;;;;3.97;2.40;;;10.50;87.70;;;;;;5083832;28;20428;-77
2022/12/23 07:24:51;;;;;;;4.65;2.70;;;10.50;87.80;;;;;;5073136;28;20078;-77
2022/12/23 07:27:17;;;;;;;4.80;2.25;;;10.50;87.70;;;;;;5089971;28;20023;-78
2022/12/23 07:29:42;;;;;;;4.25;2.15;;;10.50;87.70;;;;;;5092296;28;20115;-79
2022/12/23 07:32:08;;;;;;;4.47;2.60;;;10.50;87.70;;;;;;5085538;28;20025;-78
2022/12/23 07:34:33;;;;;;;4.57;2.30;;;10.50;87.70;;;;;;5075106;28;20100;-78
2022/12/23 07:36:59;;;;;;;4.35;2.40;;;10.50;87.80;;;;;;5073465;28;20036;-77
2022/12/23 07:39:24;;;;;;;4.20;2.45;;;10.50;87.80;;;;;;5109600;28;20016;-78
2022/12/23 07:41:50;;;;;;;3.65;2.10;;;10.50;87.70;;;;;;5097508;28;20024;-79
2022/12/23 07:44:15;;;;;;;4.38;2.25;;;10.50;87.70;;;;;;5091663;28;20020;-77
2022/12/23 07:46:41;;;;;;;4.28;2.30;;;10.50;87.70;;;;;;5091600;28;20115;-77
2022/12/23 07:49:06;;;;;;;4.05;2.03;;;10.50;87.70;;;;;;5091509;28;20052;-77
2022/12/23 07:51:32;;;;;;;4.78;2.55;;;10.50;87.60;;;;;;5091347;28;20115;-77
2022/12/23 07:53:57;;;;;;;3.72;2.20;;;10.50;87.70;;;;;;5091458;28;20036;-76
2022/12/23 07:56:23;;;;;;;4.00;2.22;;;10.50;87.70;;;;;;5091366;28;20038;-78
2022/12/23 07:58:49;;;;;;;4.15;2.22;;;10.50;87.60;;;;;;5091449;28;20028;-79
2022/12/23 08:01:16;;;;;;;4.28;2.45;;;10.50;87.60;;;;;;5091357;28;20381;-76
2022/12/23 08:03:42;;;;;;;4.25;2.28;;;10.50;87.70;;;;;;5093750;28;20024;-76
2022/12/23 08:06:12;;;;;;;4.32;2.30;;;10.50;87.60;;;;;;5091239;28;20096;-76
2022/12/23 08:08:39;;;;;;;4.70;2.65;;;10.50;87.60;;;;;;5092676;28;20032;-75
2022/12/23 08:11:07;;;;;;;3.63;2.10;;;10.50;87.60;;;;;;5091084;28;20500;-76
2022/12/23 08:13:35;;;;;;;4.57;2.40;;;10.50;87.80;;;;;;5095312;28;20099;-76
2022/12/23 08:16:02;;;;;;;5.65;2.72;;;10.50;87.80;;;;;;5095557;28;20584;-75
2022/12/23 08:18:30;;;;;;;4.82;2.65;;;10.50;88.30;;;;;;5091462;28;20089;-78
2022/12/23 08:21:01;;;;;;;5.05;2.72;;;10.50;87.70;;;;;;5092661;28;20479;-78
2022/12/23 08:23:28;;;;;;;6.57;3.30;;;10.50;88.00;;;;;;5094714;28;20050;-75
2022/12/23 08:26:03;;;;;;;8.90;3.92;;;10.50;88.30;;;;;;5095222;28;20028;-77
2022/12/23 08:28:29;;;;;;;8.75;4.18;;;10.50;88.70;;;;;;5088817;28;20028;-77
2022/12/23 08:31:01;;;;;;;8.60;4.22;;;10.50;88.80;;;;;;5084509;28;20060;-76
2022/12/23 08:33:26;;;;;;;;;;;10.40;89.60;;;;;;5091163;28;20039;-77
2022/12/23 08:35:53;;;;;;;8.45;4.40;;;10.50;90.00;;;;;;5095879;28;19907;-74
2022/12/23 08:38:19;;;;;;;9.18;4.43;;;10.50;89.90;;;;;;5075437;28;20024;-76
2022/12/23 08:40:44;;;;;;;6.22;3.53;;;10.50;89.70;;;;;;5091527;28;20024;-75
2022/12/23 08:43:10;;;;;;;7.60;4.13;;;10.50;89.50;;;;;;5095516;28;20024;-75
2022/12/23 08:45:37;;;;;;;8.38;4.35;;;10.50;89.40;;;;;;5087467;28;20016;-77
2022/12/23 08:48:04;;;;;;;9.85;4.78;;;10.60;89.40;;;;;;5095569;28;20022;-76
2022/12/23 08:50:29;;;;;;;9.75;4.55;;;10.60;89.40;;;;;;5094305;28;20057;-76
2022/12/23 08:52:55;;;;;;;8.45;4.53;;;10.60;89.40;;;;;;5084660;28;20051;-76
2022/12/23 08:55:20;;;;;;;10.38;4.95;;;10.50;89.30;;;;;;5075618;28;20024;-76
2022/12/23 08:57:46;;;;;;;10.77;5.18;;;10.60;89.40;;;;;;5095407;28;20099;-77
2022/12/23 09:00:11;;;;;;;8.98;5.57;;;10.60;89.50;;;;;;5095316;28;20048;-74
2022/12/23 09:02:37;;;;;;;12.73;5.68;;;10.60;89.60;;;;;;5086447;28;20074;-78
2022/12/23 09:05:03;;;;;;;10.13;5.80;;;10.60;89.90;;;;;;5096019;28;20024;-76
2022/12/23 09:07:28;;;;;;;10.85;5.75;;;10.60;90.00;;;;;;5094158;28;20119;-76
2022/12/23 09:09:53;;;;;;;9.23;5.97;;;10.60;90.10;;;;;;5093963;28;20027;-76
2022/12/23 09:12:19;;;;;;;12.82;6.60;;;10.50;90.10;;;;;;5086122;28;20555;-76
2022/12/23 09:14:47;;;;;;;13.25;6.28;;;10.50;90.20;;;;;;5094994;28;20028;-77
2022/12/23 09:17:13;;;;;;;12.77;6.20;;;10.60;90.20;;;;;;5094981;28;20024;-76
2022/12/23 09:19:38;;;;;;;12.55;6.75;;;10.50;90.20;;;;;;5093795;28;20019;-77
2022/12/23 09:22:04;;;;;;;10.77;6.47;;;10.50;90.30;;;;;;5090462;28;20029;-76
2022/12/23 09:24:30;;;;;;;15.55;6.57;;;10.50;90.30;;;;;;5085214;28;20099;-77
2022/12/23 09:26:55;;;;;;;11.88;6.05;;;10.50;90.40;;;;;;5094769;28;20020;-75
2022/12/23 09:29:21;;;;;;;13.60;7.30;;;10.50;90.40;;;;;;5093445;28;20023;-77
2022/12/23 09:31:46;;;;;;;12.73;6.68;;;10.50;90.50;;;;;;5091502;28;20025;-75
2022/12/23 09:34:13;;;;;;;15.13;7.07;;;10.50;90.50;;;;;;5083058;28;20021;-76
2022/12/23 09:36:38;;;;;;;12.00;6.80;;;10.50;90.50;;;;;;5078987;28;20028;-76
2022/12/23 09:39:04;;;;;;;12.60;7.07;;;10.40;90.50;;;;;;5090715;28;20023;-75
2022/12/23 09:41:47;;;;;;;12.35;6.53;;;10.50;90.50;;;;;;5090558;28;20465;-75
2022/12/23 09:44:27;;;;;;;12.20;6.68;;;10.50;90.50;;;;;;5093240;28;20020;-75
2022/12/23 09:46:57;;;;;;;11.10;6.55;;;10.50;90.50;;;;;;5091502;28;20112;-74
2022/12/23 09:49:23;;;;;;;12.05;7.13;;;10.50;90.50;;;;;;5093145;28;20078;-74
2022/12/23 09:51:54;;;;;;;11.70;7.43;;;10.50;90.50;;;;;;5089110;28;20512;-75
2022/12/23 09:54:23;;;;;;;13.90;6.95;;;10.50;90.50;;;;;;5090724;28;20012;-75
2022/12/23 09:56:59;;;;;;;11.48;7.40;;;10.50;90.60;;;;;;5091872;28;20052;-75
2022/12/23 09:59:43;;;;;;;11.23;7.22;;;10.50;90.50;;;;;;5092193;28;20016;-75
2022/12/23 10:02:35;;;;;;;11.25;7.20;;;10.50;90.50;;;;;;5088531;28;20033;-75
2022/12/23 10:05:19;;;;;;;11.45;7.50;;;10.50;90.50;;;;;;5088902;28;20047;-76
2022/12/23 10:07:57;;;;;;;12.43;7.25;;;10.60;90.50;;;;;;5092348;28;20111;-75
2022/12/23 10:10:31;;;;;;;12.40;7.30;;;10.60;90.50;;;;;;5093584;28;20016;-76
2022/12/23 10:13:00;;;;;;;10.98;6.78;;;10.50;90.50;;;;;;5087305;28;20024;-75
2022/12/23 10:15:37;;;;;;;12.45;7.55;;;10.50;90.50;;;;;;5086068;28;20020;-75
2022/12/23 10:18:16;;;;;;;11.27;6.75;;;10.50;90.50;;;;;;5087925;28;20020;-75
2022/12/23 10:20:47;;;;;;;13.02;7.75;;;10.50;90.40;;;;;;5077083;28;20017;-76
2022/12/23 10:23:19;;;;;;;13.63;7.73;;;10.50;90.50;;;;;;5085966;28;20052;-75
2022/12/23 10:25:51;;;;;;;11.02;7.82;;;10.50;90.50;;;;;;5085859;28;20817;-75
2022/12/23 10:28:16;;;;;;;11.98;7.60;;;10.60;90.50;;;;;;5091934;28;20059;-76
2022/12/23 10:30:48;;;;;;;12.57;7.85;;;10.50;90.40;;;;;;5091599;28;20052;-75
2022/12/23 10:33:51;;;;;;;11.95;7.68;;;10.60;90.30;;;;;;5088328;28;20102;-75
2022/12/23 10:36:26;;;;;;;11.48;7.47;;;10.50;90.50;;;;;;5081430;28;20028;-76
2022/12/23 10:39:08;;;;;;;11.63;7.13;;;10.50;90.40;;;;;;5093061;28;20470;-76
2022/12/23 10:41:39;;;;;;;;;;;10.50;90.40;;;;;;5090932;28;20127;-76
2022/12/23 10:44:26;;;;;;;11.95;7.43;;;10.50;90.20;;;;;;5088121;28;19900;-76
2022/12/23 10:47:02;;;;;;;11.15;6.72;;;10.50;90.40;;;;;;5085546;28;20016;-75
2022/12/23 10:49:57;;;;;;;10.48;6.90;;;10.50;90.30;;;;;;5092664;28;20024;-75
2022/12/23 10:52:31;;;;;;;11.63;7.43;;;10.50;90.40;;;;;;5084089;28;20036;-75
2022/12/23 10:54:56;;;;;;;13.10;7.70;;;10.50;90.20;;;;;;5091005;28;20378;-75
2022/12/23 10:57:23;;;;;;;12.88;7.20;;;10.60;90.10;;;;;;5090945;28;20023;-75
2022/12/23 10:59:49;;;;;;;12.05;7.50;;;10.50;90.10;;;;;;5092686;28;20020;-77
2022/12/23 11:02:23;;;;;;;12.10;7.70;;;10.50;90.10;;;;;;5088444;28;20369;-76
2022/12/23 11:04:49;;;;;;;12.65;7.53;;;10.60;90.20;;;;;;5085073;28;20473;-76
2022/12/23 11:07:22;;;;;;;10.25;6.80;;;10.50;90.30;;;;;;5091138;28;20034;-75
2022/12/23 11:09:51;;;;;;;10.32;7.40;;;10.50;90.40;;;;;;5091187;28;20024;-77
2022/12/23 11:12:22;;;;;;;10.70;7.13;;;10.60;90.40;;;;;;5083829;28;20485;-76
2022/12/23 11:14:55;;;;;;;12.98;7.03;;;10.60;90.30;;;;;;5085767;28;20028;-75
2022/12/23 11:17:23;;;;;;;10.85;6.82;;;10.50;90.20;;;;;;5091863;28;20470;-76
2022/12/23 11:20:05;;;;;;;11.38;7.10;;;10.50;90.10;;;;;;5092054;28;20024;-75
2022/12/23 11:22:31;;;;;;;10.55;6.78;;;10.60;90.00;;;;;;5089744;28;20026;-76
2022/12/23 11:25:26;;;;;;;11.45;7.25;;;10.60;90.00;;;;;;5090608;28;20009;-75
2022/12/23 11:27:57;;;;;;;10.02;6.85;;;10.60;89.90;;;;;;5071786;28;20356;-75
2022/12/23 11:30:23;;;;;;;11.68;6.95;;;10.50;90.20;;;;;;5071562;28;20048;-76
2022/12/23 11:32:50;;;;;;;11.75;7.45;;;10.60;90.30;;;;;;5076405;28;20067;-75
2022/12/23 11:35:31;;;;;;;10.93;6.72;;;10.60;90.30;;;;;;5089267;28;20028;-77
2022/12/23 11:38:01;;;;;;;12.23;6.97;;;10.60;90.40;;;;;;5090538;28;20481;-76
2022/12/23 11:40:37;;;;;;;10.93;7.00;;;10.50;90.10;;;;;;5091816;28;20036;-75
2022/12/23 11:43:13;;;;;;;9.82;6.50;;;10.60;90.10;;;;;;5089500;28;20020;-76
2022/12/23 11:45:38;;;;;;;10.85;6.75;;;10.60;90.40;;;;;;5088721;28;20036;-75
2022/12/23 11:48:05;;;;;;;11.30;7.03;;;10.60;90.50;;;;;;5090116;28;20062;-77
2022/12/23 11:50:37;;;;;;;11.52;7.57;;;10.60;90.40;;;;;;5091825;28;20069;-76
2022/12/23 11:53:22;;;;;;;11.27;7.13;;;10.60;90.40;;;;;;5082030;28;20032;-76
2022/12/23 11:56:12;;;;;;;12.23;7.00;;;10.60;90.40;;;;;;5089622;28;20674;-76
2022/12/23 11:58:53;;;;;;;11.27;6.50;;;10.70;90.30;;;;;;5070292;28;20041;-75
2022/12/23 12:01:22;;;;;;;10.43;6.93;;;10.70;90.30;;;;;;5069394;28;20044;-76
2022/12/23 12:04:05;;;;;;;11.30;7.10;;;10.60;90.20;;;;;;5084099;28;20091;-77
2022/12/23 12:06:32;;;;;;;10.23;6.50;;;10.70;90.20;;;;;;5089942;28;20123;-74
2022/12/23 12:09:00;;;;;;;10.52;6.80;;;10.70;90.20;;;;;;5091525;28;20089;-76
2022/12/23 12:11:34;;;;;;;9.98;6.90;;;10.70;90.20;;;;;;5090270;28;20058;-76
2022/12/23 12:14:03;;;;;;;11.45;6.93;;;10.70;90.20;;;;;;5083152;28;20029;-77
2022/12/23 12:16:56;;;;;;;11.68;7.30;;;10.70;90.30;;;;;;5081303;28;20020;-76
2022/12/23 12:19:24;;;;;;;10.27;6.88;;;10.70;90.30;;;;;;5090035;28;20070;-76
2022/12/23 12:21:55;;;;;;;9.45;6.45;;;10.60;90.40;;;;;;5080226;28;20024;-76
2022/12/23 12:24:37;;;;;;;10.02;6.95;;;10.70;90.50;;;;;;5083612;28;20026;-76
2022/12/23 12:27:06;;;;;;;10.57;6.80;;;10.60;90.50;;;;;;5091579;28;20020;-75
2022/12/23 12:29:40;;;;;;;10.07;6.30;;;10.60;90.50;;;;;;5091518;28;20051;-76
2022/12/23 12:32:31;;;;;;;10.52;6.90;;;10.60;90.60;;;;;;5086192;28;20085;-76
2022/12/23 12:35:05;;;;;;;11.05;6.97;;;10.60;90.60;;;;;;5077631;28;20039;-76
2022/12/23 12:37:45;;;;;;;10.73;6.82;;;10.60;90.60;;;;;;5091282;28;20021;-76
2022/12/23 12:40:22;;;;;;;11.57;6.40;;;10.50;90.60;;;;;;5090023;28;20008;-77
2022/12/23 12:43:02;;;;;;;9.95;6.53;;;10.60;90.70;;;;;;5083226;28;20070;-78
2022/12/23 12:45:38;;;;;;;10.32;6.70;;;10.50;90.70;;;;;;5086497;28;20027;-76
2022/12/23 12:48:26;;;;;;;10.90;7.47;;;10.50;90.70;;;;;;5089861;28;20051;-76
2022/12/23 12:51:08;;;;;;;10.30;6.50;;;10.50;90.70;;;;;;5091239;28;20016;-76
2022/12/23 12:53:35;;;;;;;11.30;7.20;;;10.50;90.80;;;;;;5086332;28;20020;-77
2022/12/23 12:56:28;;;;;;;10.88;7.40;;;10.50;90.80;;;;;;5091195;28;20045;-76
2022/12/23 12:58:53;;;;;;;12.57;7.43;;;10.50;90.80;;;;;;5071635;28;20016;-77
2022/12/23 13:01:48;;;;;;;11.25;7.10;;;10.50;90.80;;;;;;5073164;28;20506;-76
2022/12/23 13:04:13;;;;;;;10.65;7.30;;;10.50;90.80;;;;;;5088592;28;20064;-76
2022/12/23 13:06:57;;;;;;;11.60;7.07;;;10.50;90.90;;;;;;5095129;28;20114;-76
2022/12/23 13:09:30;;;;;;;11.32;7.47;;;10.50;90.90;;;;;;5095180;28;20077;-76
2022/12/23 13:12:20;;;;;;;9.68;6.70;;;10.50;90.90;;;;;;5091992;28;20048;-75
2022/12/23 13:15:02;;;;;;;10.35;6.97;;;10.50;90.90;;;;;;5090393;28;20025;-76
2022/12/23 13:17:36;;;;;;;11.70;7.75;;;10.50;90.90;;;;;;5093098;28;20030;-76
2022/12/23 13:20:28;;;;;;;12.00;7.50;;;10.50;91.00;;;;;;5093853;28;20052;-76
2022/12/23 13:23:04;;;;;;;11.10;7.35;;;10.50;90.90;;;;;;5087733;28;20419;-74
2022/12/23 13:25:40;;;;;;;11.73;7.40;;;10.50;91.00;;;;;;5092974;28;20020;-76
2022/12/23 13:28:33;;;;;;;11.98;8.07;;;10.50;90.90;;;;;;5096179;28;20051;-76